sensor_id;sensor_type;location;lat;lon;timestamp;P1;durP1;ratioP1;P2;durP2;ratioP2
22851;SDS011;11592;45.460;9.240;2023-05-16T00:00:16;12.18;;;9.02;;
22851;SDS011;11592;45.460;9.240;2023-05-16T00:02:43;12.50;;;8.50;;
22851;SDS011;11592;45.460;9.240;2023-05-16T00:05:10;13.13;;;8.95;;
22851;SDS011;11592;45.460;9.240;2023-05-16T00:07:44;14.02;;;9.57;;
22851;SDS011;11592;45.460;9.240;2023-05-16T00:10:12;11.48;;;8.68;;
22851;SDS011;11592;45.460;9.240;2023-05-16T00:12:39;12.25;;;8.18;;
22851;SDS011;11592;45.460;9.240;2023-05-16T00:15:06;14.07;;;9.20;;
22851;SDS011;11592;45.460;9.240;2023-05-16T00:17:38;14.65;;;9.38;;
22851;SDS011;11592;45.460;9.240;2023-05-16T00:20:06;14.35;;;9.50;;
22851;SDS011;11592;45.460;9.240;2023-05-16T00:22:33;11.32;;;8.73;;
22851;SDS011;11592;45.460;9.240;2023-05-16T00:25:00;11.20;;;8.48;;
22851;SDS011;11592;45.460;9.240;2023-05-16T00:27:27;10.02;;;8.35;;
22851;SDS011;11592;45.460;9.240;2023-05-16T00:29:54;12.85;;;8.73;;
22851;SDS011;11592;45.460;9.240;2023-05-16T00:32:21;11.52;;;8.80;;
22851;SDS011;11592;45.460;9.240;2023-05-16T00:34:49;10.98;;;8.85;;
22851;SDS011;11592;45.460;9.240;2023-05-16T00:37:16;12.00;;;8.48;;
22851;SDS011;11592;45.460;9.240;2023-05-16T00:39:42;12.07;;;9.00;;
22851;SDS011;11592;45.460;9.240;2023-05-16T00:42:09;10.93;;;8.75;;
22851;SDS011;11592;45.460;9.240;2023-05-16T00:44:36;11.90;;;9.43;;
22851;SDS011;11592;45.460;9.240;2023-05-16T00:47:03;12.90;;;8.77;;
22851;SDS011;11592;45.460;9.240;2023-05-16T00:49:29;11.32;;;8.95;;
22851;SDS011;11592;45.460;9.240;2023-05-16T00:51:57;12.27;;;8.75;;
22851;SDS011;11592;45.460;9.240;2023-05-16T00:54:24;14.18;;;8.88;;
22851;SDS011;11592;45.460;9.240;2023-05-16T00:56:55;10.90;;;8.32;;
22851;SDS011;11592;45.460;9.240;2023-05-16T00:59:23;11.50;;;8.38;;
22851;SDS011;11592;45.460;9.240;2023-05-16T01:01:50;11.25;;;8.43;;
22851;SDS011;11592;45.460;9.240;2023-05-16T01:04:18;12.27;;;9.25;;
22851;SDS011;11592;45.460;9.240;2023-05-16T01:06:46;16.60;;;9.98;;
22851;SDS011;11592;45.460;9.240;2023-05-16T01:09:12;12.80;;;8.63;;
22851;SDS011;11592;45.460;9.240;2023-05-16T01:12:43;13.40;;;9.40;;
22851;SDS011;11592;45.460;9.240;2023-05-16T01:28:07;15.73;;;10.40;;
22851;SDS011;11592;45.460;9.240;2023-05-16T01:30:38;13.23;;;10.40;;
22851;SDS011;11592;45.460;9.240;2023-05-16T01:33:07;14.60;;;9.90;;
22851;SDS011;11592;45.460;9.240;2023-05-16T01:35:36;13.68;;;9.82;;
22851;SDS011;11592;45.460;9.240;2023-05-16T01:43:51;13.82;;;10.82;;
22851;SDS011;11592;45.460;9.240;2023-05-16T01:46:25;14.57;;;11.15;;
22851;SDS011;11592;45.460;9.240;2023-05-16T01:51:44;17.38;;;10.35;;
22851;SDS011;11592;45.460;9.240;2023-05-16T01:54:17;12.80;;;10.70;;
22851;SDS011;11592;45.460;9.240;2023-05-16T01:56:48;14.90;;;10.18;;
22851;SDS011;11592;45.460;9.240;2023-05-16T01:59:22;16.05;;;10.95;;
22851;SDS011;11592;45.460;9.240;2023-05-16T02:01:53;17.38;;;9.68;;
22851;SDS011;11592;45.460;9.240;2023-05-16T02:04:21;12.68;;;10.25;;
22851;SDS011;11592;45.460;9.240;2023-05-16T02:06:49;19.58;;;10.32;;
22851;SDS011;11592;45.460;9.240;2023-05-16T02:09:17;13.02;;;10.50;;
22851;SDS011;11592;45.460;9.240;2023-05-16T02:11:43;14.73;;;10.18;;
22851;SDS011;11592;45.460;9.240;2023-05-16T02:14:12;14.07;;;11.15;;
22851;SDS011;11592;45.460;9.240;2023-05-16T02:16:39;16.50;;;10.77;;
22851;SDS011;11592;45.460;9.240;2023-05-16T02:19:06;17.60;;;11.68;;
22851;SDS011;11592;45.460;9.240;2023-05-16T02:21:32;16.35;;;11.10;;
22851;SDS011;11592;45.460;9.240;2023-05-16T02:23:59;15.52;;;10.45;;
22851;SDS011;11592;45.460;9.240;2023-05-16T02:26:26;16.63;;;10.63;;
22851;SDS011;11592;45.460;9.240;2023-05-16T02:28:53;14.73;;;10.23;;
22851;SDS011;11592;45.460;9.240;2023-05-16T02:31:26;13.88;;;10.30;;
22851;SDS011;11592;45.460;9.240;2023-05-16T02:33:58;15.07;;;10.43;;
22851;SDS011;11592;45.460;9.240;2023-05-16T02:36:25;14.23;;;10.30;;
22851;SDS011;11592;45.460;9.240;2023-05-16T02:38:52;15.63;;;10.20;;
22851;SDS011;11592;45.460;9.240;2023-05-16T02:41:19;16.95;;;10.23;;
22851;SDS011;11592;45.460;9.240;2023-05-16T02:43:47;14.07;;;10.13;;
22851;SDS011;11592;45.460;9.240;2023-05-16T02:48:51;17.98;;;11.45;;
22851;SDS011;11592;45.460;9.240;2023-05-16T02:51:21;15.50;;;10.38;;
22851;SDS011;11592;45.460;9.240;2023-05-16T02:53:49;16.85;;;11.18;;
22851;SDS011;11592;45.460;9.240;2023-05-16T02:56:17;15.45;;;10.05;;
22851;SDS011;11592;45.460;9.240;2023-05-16T02:58:45;17.75;;;11.27;;
22851;SDS011;11592;45.460;9.240;2023-05-16T03:01:13;18.98;;;10.45;;
22851;SDS011;11592;45.460;9.240;2023-05-16T03:03:41;16.27;;;10.63;;
22851;SDS011;11592;45.460;9.240;2023-05-16T03:06:08;14.55;;;11.23;;
22851;SDS011;11592;45.460;9.240;2023-05-16T03:08:35;15.40;;;11.10;;
22851;SDS011;11592;45.460;9.240;2023-05-16T03:11:02;17.15;;;10.68;;
22851;SDS011;11592;45.460;9.240;2023-05-16T03:13:29;16.95;;;10.90;;
22851;SDS011;11592;45.460;9.240;2023-05-16T03:15:56;14.10;;;10.88;;
22851;SDS011;11592;45.460;9.240;2023-05-16T03:18:22;15.07;;;10.52;;
22851;SDS011;11592;45.460;9.240;2023-05-16T03:20:49;13.77;;;10.98;;
22851;SDS011;11592;45.460;9.240;2023-05-16T03:23:18;17.45;;;12.15;;
22851;SDS011;11592;45.460;9.240;2023-05-16T03:25:46;14.88;;;10.57;;
22851;SDS011;11592;45.460;9.240;2023-05-16T03:28:15;20.25;;;11.38;;
22851;SDS011;11592;45.460;9.240;2023-05-16T03:30:43;17.40;;;12.00;;
22851;SDS011;11592;45.460;9.240;2023-05-16T03:33:10;16.30;;;10.73;;
22851;SDS011;11592;45.460;9.240;2023-05-16T03:35:36;16.08;;;11.38;;
22851;SDS011;11592;45.460;9.240;2023-05-16T03:38:04;15.45;;;11.38;;
22851;SDS011;11592;45.460;9.240;2023-05-16T03:40:31;18.20;;;11.38;;
22851;SDS011;11592;45.460;9.240;2023-05-16T03:42:58;17.73;;;11.32;;
22851;SDS011;11592;45.460;9.240;2023-05-16T03:45:25;15.85;;;11.95;;
22851;SDS011;11592;45.460;9.240;2023-05-16T03:47:52;16.83;;;11.65;;
22851;SDS011;11592;45.460;9.240;2023-05-16T03:50:19;16.02;;;11.43;;
22851;SDS011;11592;45.460;9.240;2023-05-16T03:52:45;15.93;;;11.13;;
22851;SDS011;11592;45.460;9.240;2023-05-16T03:55:12;17.17;;;11.75;;
22851;SDS011;11592;45.460;9.240;2023-05-16T03:57:41;16.38;;;11.35;;
22851;SDS011;11592;45.460;9.240;2023-05-16T04:00:08;20.80;;;11.70;;
22851;SDS011;11592;45.460;9.240;2023-05-16T04:02:38;16.73;;;11.20;;
22851;SDS011;11592;45.460;9.240;2023-05-16T04:05:09;16.10;;;10.88;;
22851;SDS011;11592;45.460;9.240;2023-05-16T04:07:37;15.40;;;10.88;;
22851;SDS011;11592;45.460;9.240;2023-05-16T04:10:05;15.50;;;11.43;;
22851;SDS011;11592;45.460;9.240;2023-05-16T04:12:32;14.60;;;10.95;;
22851;SDS011;11592;45.460;9.240;2023-05-16T04:14:59;14.50;;;11.13;;
22851;SDS011;11592;45.460;9.240;2023-05-16T04:17:26;16.45;;;12.25;;
22851;SDS011;11592;45.460;9.240;2023-05-16T04:19:53;17.23;;;11.15;;
22851;SDS011;11592;45.460;9.240;2023-05-16T04:22:20;13.73;;;10.75;;
22851;SDS011;11592;45.460;9.240;2023-05-16T04:24:48;18.02;;;11.68;;
22851;SDS011;11592;45.460;9.240;2023-05-16T04:27:15;17.25;;;11.27;;
22851;SDS011;11592;45.460;9.240;2023-05-16T04:29:42;16.20;;;11.35;;
22851;SDS011;11592;45.460;9.240;2023-05-16T04:32:09;16.70;;;11.20;;
22851;SDS011;11592;45.460;9.240;2023-05-16T04:34:37;18.00;;;11.23;;
22851;SDS011;11592;45.460;9.240;2023-05-16T04:37:05;14.48;;;10.48;;
22851;SDS011;11592;45.460;9.240;2023-05-16T04:39:34;19.23;;;11.07;;
22851;SDS011;11592;45.460;9.240;2023-05-16T04:42:01;14.60;;;11.27;;
22851;SDS011;11592;45.460;9.240;2023-05-16T04:44:29;18.30;;;12.85;;
22851;SDS011;11592;45.460;9.240;2023-05-16T04:46:56;24.15;;;12.57;;
22851;SDS011;11592;45.460;9.240;2023-05-16T04:49:23;18.42;;;11.75;;
22851;SDS011;11592;45.460;9.240;2023-05-16T04:51:49;15.45;;;11.38;;
22851;SDS011;11592;45.460;9.240;2023-05-16T04:54:16;15.70;;;11.63;;
22851;SDS011;11592;45.460;9.240;2023-05-16T04:56:43;15.88;;;11.70;;
22851;SDS011;11592;45.460;9.240;2023-05-16T04:59:10;19.88;;;12.80;;
22851;SDS011;11592;45.460;9.240;2023-05-16T05:01:37;19.90;;;13.98;;
22851;SDS011;11592;45.460;9.240;2023-05-16T05:04:04;22.33;;;14.90;;
22851;SDS011;11592;45.460;9.240;2023-05-16T05:06:31;18.52;;;12.98;;
22851;SDS011;11592;45.460;9.240;2023-05-16T05:08:58;20.25;;;13.20;;
22851;SDS011;11592;45.460;9.240;2023-05-16T05:11:25;17.80;;;12.45;;
22851;SDS011;11592;45.460;9.240;2023-05-16T05:13:52;17.83;;;13.43;;
22851;SDS011;11592;45.460;9.240;2023-05-16T05:16:19;20.27;;;14.23;;
22851;SDS011;11592;45.460;9.240;2023-05-16T05:18:46;21.45;;;14.23;;
22851;SDS011;11592;45.460;9.240;2023-05-16T05:21:13;21.42;;;14.77;;
22851;SDS011;11592;45.460;9.240;2023-05-16T05:23:39;20.92;;;14.80;;
22851;SDS011;11592;45.460;9.240;2023-05-16T05:26:06;20.63;;;14.48;;
22851;SDS011;11592;45.460;9.240;2023-05-16T05:28:33;22.60;;;14.15;;
22851;SDS011;11592;45.460;9.240;2023-05-16T05:31:00;21.75;;;14.80;;
22851;SDS011;11592;45.460;9.240;2023-05-16T05:33:27;18.85;;;14.05;;
22851;SDS011;11592;45.460;9.240;2023-05-16T05:35:56;23.33;;;14.50;;
22851;SDS011;11592;45.460;9.240;2023-05-16T05:38:23;24.25;;;15.32;;
22851;SDS011;11592;45.460;9.240;2023-05-16T05:40:50;22.70;;;14.77;;
22851;SDS011;11592;45.460;9.240;2023-05-16T05:43:18;19.80;;;14.77;;
22851;SDS011;11592;45.460;9.240;2023-05-16T05:45:45;20.23;;;14.45;;
22851;SDS011;11592;45.460;9.240;2023-05-16T05:48:12;23.05;;;13.88;;
22851;SDS011;11592;45.460;9.240;2023-05-16T05:50:39;23.88;;;16.45;;
22851;SDS011;11592;45.460;9.240;2023-05-16T05:53:06;26.05;;;16.80;;
22851;SDS011;11592;45.460;9.240;2023-05-16T05:55:33;27.02;;;18.55;;
22851;SDS011;11592;45.460;9.240;2023-05-16T05:58:00;25.45;;;18.52;;
22851;SDS011;11592;45.460;9.240;2023-05-16T06:00:28;28.05;;;20.05;;
22851;SDS011;11592;45.460;9.240;2023-05-16T06:02:55;30.17;;;20.80;;
22851;SDS011;11592;45.460;9.240;2023-05-16T06:05:22;28.73;;;20.25;;
22851;SDS011;11592;45.460;9.240;2023-05-16T06:07:50;34.05;;;21.23;;
22851;SDS011;11592;45.460;9.240;2023-05-16T06:10:17;28.23;;;19.60;;
22851;SDS011;11592;45.460;9.240;2023-05-16T06:12:43;26.42;;;17.92;;
22851;SDS011;11592;45.460;9.240;2023-05-16T06:15:10;24.88;;;17.85;;
22851;SDS011;11592;45.460;9.240;2023-05-16T06:17:37;22.08;;;16.85;;
22851;SDS011;11592;45.460;9.240;2023-05-16T06:20:04;21.15;;;16.25;;
22851;SDS011;11592;45.460;9.240;2023-05-16T06:22:31;23.23;;;16.33;;
22851;SDS011;11592;45.460;9.240;2023-05-16T06:24:58;24.88;;;17.63;;
22851;SDS011;11592;45.460;9.240;2023-05-16T06:27:25;28.35;;;17.90;;
22851;SDS011;11592;45.460;9.240;2023-05-16T06:29:52;22.02;;;15.90;;
22851;SDS011;11592;45.460;9.240;2023-05-16T06:32:19;25.52;;;15.98;;
22851;SDS011;11592;45.460;9.240;2023-05-16T06:34:47;25.55;;;16.52;;
22851;SDS011;11592;45.460;9.240;2023-05-16T06:37:14;26.55;;;17.15;;
22851;SDS011;11592;45.460;9.240;2023-05-16T06:39:41;27.98;;;16.77;;
22851;SDS011;11592;45.460;9.240;2023-05-16T06:42:08;23.05;;;14.10;;
22851;SDS011;11592;45.460;9.240;2023-05-16T06:44:36;16.38;;;13.13;;
22851;SDS011;11592;45.460;9.240;2023-05-16T06:47:02;14.32;;;9.25;;
22851;SDS011;11592;45.460;9.240;2023-05-16T06:49:30;12.38;;;9.57;;
22851;SDS011;11592;45.460;9.240;2023-05-16T06:51:56;13.98;;;9.27;;
22851;SDS011;11592;45.460;9.240;2023-05-16T06:54:23;14.77;;;8.30;;
22851;SDS011;11592;45.460;9.240;2023-05-16T06:56:50;10.15;;;7.32;;
22851;SDS011;11592;45.460;9.240;2023-05-16T06:59:19;14.25;;;8.88;;
22851;SDS011;11592;45.460;9.240;2023-05-16T07:01:46;12.40;;;8.60;;
22851;SDS011;11592;45.460;9.240;2023-05-16T07:04:13;12.60;;;8.65;;
22851;SDS011;11592;45.460;9.240;2023-05-16T07:06:40;12.70;;;7.20;;
22851;SDS011;11592;45.460;9.240;2023-05-16T07:09:07;11.50;;;8.10;;
22851;SDS011;11592;45.460;9.240;2023-05-16T07:11:34;10.48;;;7.50;;
22851;SDS011;11592;45.460;9.240;2023-05-16T07:14:01;10.93;;;6.28;;
22851;SDS011;11592;45.460;9.240;2023-05-16T07:16:28;13.20;;;6.15;;
22851;SDS011;11592;45.460;9.240;2023-05-16T07:18:55;10.93;;;5.70;;
22851;SDS011;11592;45.460;9.240;2023-05-16T07:21:22;8.93;;;5.30;;
22851;SDS011;11592;45.460;9.240;2023-05-16T07:23:49;10.30;;;6.53;;
22851;SDS011;11592;45.460;9.240;2023-05-16T07:26:15;8.02;;;5.25;;
22851;SDS011;11592;45.460;9.240;2023-05-16T07:28:45;9.95;;;4.55;;
22851;SDS011;11592;45.460;9.240;2023-05-16T07:31:12;9.40;;;5.35;;
22851;SDS011;11592;45.460;9.240;2023-05-16T07:33:39;8.77;;;5.47;;
22851;SDS011;11592;45.460;9.240;2023-05-16T07:36:06;9.10;;;6.13;;
22851;SDS011;11592;45.460;9.240;2023-05-16T07:38:42;10.00;;;6.65;;
22851;SDS011;11592;45.460;9.240;2023-05-16T07:41:10;10.32;;;6.70;;
22851;SDS011;11592;45.460;9.240;2023-05-16T07:43:37;10.93;;;7.32;;
22851;SDS011;11592;45.460;9.240;2023-05-16T07:46:04;9.82;;;7.30;;
22851;SDS011;11592;45.460;9.240;2023-05-16T07:48:31;11.52;;;6.78;;
22851;SDS011;11592;45.460;9.240;2023-05-16T07:50:58;12.93;;;8.35;;
22851;SDS011;11592;45.460;9.240;2023-05-16T07:53:24;12.63;;;9.27;;
22851;SDS011;11592;45.460;9.240;2023-05-16T07:55:51;12.30;;;9.63;;
22851;SDS011;11592;45.460;9.240;2023-05-16T07:58:18;11.50;;;10.07;;
22851;SDS011;11592;45.460;9.240;2023-05-16T08:00:46;13.00;;;9.10;;
22851;SDS011;11592;45.460;9.240;2023-05-16T08:03:13;12.82;;;9.60;;
22851;SDS011;11592;45.460;9.240;2023-05-16T08:05:40;15.07;;;10.93;;
22851;SDS011;11592;45.460;9.240;2023-05-16T08:08:06;14.60;;;11.07;;
22851;SDS011;11592;45.460;9.240;2023-05-16T08:10:33;14.68;;;11.57;;
22851;SDS011;11592;45.460;9.240;2023-05-16T08:13:00;14.68;;;10.93;;
22851;SDS011;11592;45.460;9.240;2023-05-16T08:15:27;14.00;;;10.55;;
22851;SDS011;11592;45.460;9.240;2023-05-16T08:17:57;16.80;;;11.93;;
22851;SDS011;11592;45.460;9.240;2023-05-16T08:20:25;16.48;;;12.00;;
22851;SDS011;11592;45.460;9.240;2023-05-16T08:22:52;12.65;;;10.88;;
22851;SDS011;11592;45.460;9.240;2023-05-16T08:25:20;19.17;;;13.27;;
22851;SDS011;11592;45.460;9.240;2023-05-16T08:27:47;15.60;;;11.55;;
22851;SDS011;11592;45.460;9.240;2023-05-16T08:30:15;12.93;;;10.88;;
22851;SDS011;11592;45.460;9.240;2023-05-16T08:32:42;15.43;;;9.55;;
22851;SDS011;11592;45.460;9.240;2023-05-16T08:35:09;13.35;;;8.52;;
22851;SDS011;11592;45.460;9.240;2023-05-16T08:37:36;11.88;;;7.70;;
22851;SDS011;11592;45.460;9.240;2023-05-16T08:40:04;9.70;;;6.68;;
22851;SDS011;11592;45.460;9.240;2023-05-16T08:42:33;8.32;;;5.28;;
22851;SDS011;11592;45.460;9.240;2023-05-16T08:45:00;14.18;;;5.20;;
22851;SDS011;11592;45.460;9.240;2023-05-16T08:47:29;8.77;;;4.78;;
22851;SDS011;11592;45.460;9.240;2023-05-16T08:49:57;6.38;;;4.45;;
22851;SDS011;11592;45.460;9.240;2023-05-16T08:52:26;9.70;;;4.15;;
22851;SDS011;11592;45.460;9.240;2023-05-16T08:54:58;6.65;;;3.28;;
22851;SDS011;11592;45.460;9.240;2023-05-16T08:57:36;9.05;;;3.63;;
22851;SDS011;11592;45.460;9.240;2023-05-16T09:00:05;5.95;;;2.80;;
22851;SDS011;11592;45.460;9.240;2023-05-16T09:02:40;6.80;;;2.55;;
22851;SDS011;11592;45.460;9.240;2023-05-16T09:05:10;4.28;;;2.30;;
22851;SDS011;11592;45.460;9.240;2023-05-16T09:07:39;6.00;;;2.30;;
22851;SDS011;11592;45.460;9.240;2023-05-16T09:10:07;4.35;;;2.17;;
22851;SDS011;11592;45.460;9.240;2023-05-16T09:12:35;3.00;;;2.05;;
22851;SDS011;11592;45.460;9.240;2023-05-16T09:15:03;4.97;;;1.80;;
22851;SDS011;11592;45.460;9.240;2023-05-16T09:17:35;2.70;;;1.80;;
22851;SDS011;11592;45.460;9.240;2023-05-16T09:20:10;2.55;;;1.60;;
22851;SDS011;11592;45.460;9.240;2023-05-16T09:22:54;2.83;;;1.70;;
22851;SDS011;11592;45.460;9.240;2023-05-16T09:25:23;2.80;;;1.50;;
22851;SDS011;11592;45.460;9.240;2023-05-16T09:27:58;2.00;;;1.80;;
22851;SDS011;11592;45.460;9.240;2023-05-16T09:30:28;4.53;;;1.83;;
22851;SDS011;11592;45.460;9.240;2023-05-16T09:32:57;4.40;;;1.65;;
22851;SDS011;11592;45.460;9.240;2023-05-16T09:35:24;3.58;;;1.83;;
22851;SDS011;11592;45.460;9.240;2023-05-16T09:38:14;2.92;;;1.70;;
22851;SDS011;11592;45.460;9.240;2023-05-16T09:40:43;3.33;;;2.22;;
22851;SDS011;11592;45.460;9.240;2023-05-16T09:43:13;3.00;;;1.80;;
22851;SDS011;11592;45.460;9.240;2023-05-16T09:45:46;4.15;;;1.65;;
22851;SDS011;11592;45.460;9.240;2023-05-16T09:48:14;2.88;;;1.60;;
22851;SDS011;11592;45.460;9.240;2023-05-16T09:50:50;3.70;;;1.60;;
22851;SDS011;11592;45.460;9.240;2023-05-16T09:53:29;7.15;;;2.03;;
22851;SDS011;11592;45.460;9.240;2023-05-16T09:56:05;4.55;;;1.80;;
22851;SDS011;11592;45.460;9.240;2023-05-16T09:58:36;3.50;;;2.10;;
22851;SDS011;11592;45.460;9.240;2023-05-16T10:01:04;3.55;;;2.00;;
22851;SDS011;11592;45.460;9.240;2023-05-16T10:03:36;3.83;;;2.22;;
22851;SDS011;11592;45.460;9.240;2023-05-16T10:06:07;4.88;;;2.20;;
22851;SDS011;11592;45.460;9.240;2023-05-16T10:08:35;4.28;;;2.10;;
22851;SDS011;11592;45.460;9.240;2023-05-16T10:11:04;5.28;;;2.20;;
22851;SDS011;11592;45.460;9.240;2023-05-16T10:13:33;3.38;;;2.13;;
22851;SDS011;11592;45.460;9.240;2023-05-16T10:16:05;5.28;;;2.20;;
22851;SDS011;11592;45.460;9.240;2023-05-16T10:18:33;4.50;;;2.10;;
22851;SDS011;11592;45.460;9.240;2023-05-16T10:21:03;4.05;;;2.45;;
22851;SDS011;11592;45.460;9.240;2023-05-16T10:23:37;3.58;;;2.53;;
22851;SDS011;11592;45.460;9.240;2023-05-16T10:26:08;3.65;;;2.10;;
22851;SDS011;11592;45.460;9.240;2023-05-16T10:28:36;3.90;;;2.58;;
22851;SDS011;11592;45.460;9.240;2023-05-16T10:31:04;5.30;;;2.45;;
22851;SDS011;11592;45.460;9.240;2023-05-16T10:33:33;7.90;;;2.85;;
22851;SDS011;11592;45.460;9.240;2023-05-16T10:36:01;7.05;;;2.50;;
22851;SDS011;11592;45.460;9.240;2023-05-16T10:38:30;8.77;;;2.58;;
22851;SDS011;11592;45.460;9.240;2023-05-16T10:40:58;3.28;;;2.22;;
22851;SDS011;11592;45.460;9.240;2023-05-16T10:43:26;7.55;;;2.47;;
22851;SDS011;11592;45.460;9.240;2023-05-16T10:46:01;5.40;;;2.67;;
22851;SDS011;11592;45.460;9.240;2023-05-16T10:48:31;2.95;;;2.10;;
22851;SDS011;11592;45.460;9.240;2023-05-16T10:51:00;5.82;;;2.50;;
22851;SDS011;11592;45.460;9.240;2023-05-16T10:53:29;2.78;;;2.47;;
22851;SDS011;11592;45.460;9.240;2023-05-16T11:06:23;3.42;;;2.17;;
22851;SDS011;11592;45.460;9.240;2023-05-16T11:09:06;4.18;;;2.85;;
22851;SDS011;11592;45.460;9.240;2023-05-16T11:11:45;5.70;;;2.35;;
22851;SDS011;11592;45.460;9.240;2023-05-16T11:14:21;3.67;;;2.70;;
22851;SDS011;11592;45.460;9.240;2023-05-16T11:17:14;4.65;;;2.83;;
22851;SDS011;11592;45.460;9.240;2023-05-16T11:19:46;4.70;;;2.80;;
22851;SDS011;11592;45.460;9.240;2023-05-16T11:22:24;4.65;;;2.72;;
22851;SDS011;11592;45.460;9.240;2023-05-16T11:27:29;5.65;;;3.53;;
22851;SDS011;11592;45.460;9.240;2023-05-16T11:32:32;5.78;;;3.33;;
22851;SDS011;11592;45.460;9.240;2023-05-16T11:35:01;6.85;;;3.65;;
22851;SDS011;11592;45.460;9.240;2023-05-16T11:37:29;3.78;;;2.60;;
22851;SDS011;11592;45.460;9.240;2023-05-16T11:40:00;3.38;;;2.78;;
22851;SDS011;11592;45.460;9.240;2023-05-16T11:42:37;3.58;;;2.72;;
22851;SDS011;11592;45.460;9.240;2023-05-16T11:45:10;5.13;;;2.65;;
22851;SDS011;11592;45.460;9.240;2023-05-16T11:47:38;2.75;;;2.53;;
22851;SDS011;11592;45.460;9.240;2023-05-16T11:50:16;3.88;;;3.00;;
22851;SDS011;11592;45.460;9.240;2023-05-16T11:52:45;3.72;;;3.00;;
22851;SDS011;11592;45.460;9.240;2023-05-16T11:55:15;4.15;;;2.88;;
22851;SDS011;11592;45.460;9.240;2023-05-16T11:58:03;4.40;;;3.08;;
22851;SDS011;11592;45.460;9.240;2023-05-16T12:00:31;4.03;;;2.97;;
22851;SDS011;11592;45.460;9.240;2023-05-16T12:03:02;3.90;;;3.10;;
22851;SDS011;11592;45.460;9.240;2023-05-16T12:05:31;4.45;;;3.15;;
22851;SDS011;11592;45.460;9.240;2023-05-16T12:08:01;3.63;;;2.97;;
22851;SDS011;11592;45.460;9.240;2023-05-16T12:10:30;6.68;;;3.13;;
22851;SDS011;11592;45.460;9.240;2023-05-16T12:12:59;5.43;;;3.30;;
22851;SDS011;11592;45.460;9.240;2023-05-16T12:15:27;6.60;;;3.70;;
22851;SDS011;11592;45.460;9.240;2023-05-16T12:17:54;4.90;;;2.90;;
22851;SDS011;11592;45.460;9.240;2023-05-16T12:20:22;7.88;;;3.63;;
22851;SDS011;11592;45.460;9.240;2023-05-16T12:22:51;6.28;;;3.20;;
22851;SDS011;11592;45.460;9.240;2023-05-16T12:27:52;5.00;;;3.08;;
22851;SDS011;11592;45.460;9.240;2023-05-16T12:30:21;4.72;;;3.05;;
22851;SDS011;11592;45.460;9.240;2023-05-16T12:32:54;5.22;;;3.38;;
22851;SDS011;11592;45.460;9.240;2023-05-16T12:35:25;3.58;;;3.13;;
22851;SDS011;11592;45.460;9.240;2023-05-16T12:37:57;5.43;;;2.83;;
22851;SDS011;11592;45.460;9.240;2023-05-16T12:40:28;11.75;;;3.38;;
22851;SDS011;11592;45.460;9.240;2023-05-16T12:42:56;4.53;;;2.92;;
22851;SDS011;11592;45.460;9.240;2023-05-16T12:45:23;3.22;;;2.75;;
22851;SDS011;11592;45.460;9.240;2023-05-16T12:47:52;5.45;;;3.13;;
22851;SDS011;11592;45.460;9.240;2023-05-16T12:50:20;5.10;;;2.60;;
22851;SDS011;11592;45.460;9.240;2023-05-16T12:52:57;4.10;;;2.70;;
22851;SDS011;11592;45.460;9.240;2023-05-16T12:55:25;5.43;;;2.72;;
22851;SDS011;11592;45.460;9.240;2023-05-16T12:57:54;3.90;;;2.85;;
22851;SDS011;11592;45.460;9.240;2023-05-16T13:00:22;4.65;;;2.75;;
22851;SDS011;11592;45.460;9.240;2023-05-16T13:02:49;4.78;;;3.13;;
22851;SDS011;11592;45.460;9.240;2023-05-16T13:05:17;6.15;;;3.35;;
22851;SDS011;11592;45.460;9.240;2023-05-16T13:07:45;7.30;;;3.85;;
22851;SDS011;11592;45.460;9.240;2023-05-16T13:10:12;8.02;;;3.35;;
22851;SDS011;11592;45.460;9.240;2023-05-16T13:12:39;4.00;;;3.03;;
22851;SDS011;11592;45.460;9.240;2023-05-16T13:15:07;5.45;;;3.50;;
22851;SDS011;11592;45.460;9.240;2023-05-16T13:17:39;7.97;;;4.03;;
22851;SDS011;11592;45.460;9.240;2023-05-16T13:20:07;7.03;;;3.28;;
22851;SDS011;11592;45.460;9.240;2023-05-16T13:22:35;7.53;;;3.78;;
22851;SDS011;11592;45.460;9.240;2023-05-16T13:25:02;5.82;;;3.50;;
22851;SDS011;11592;45.460;9.240;2023-05-16T13:27:31;8.35;;;3.90;;
22851;SDS011;11592;45.460;9.240;2023-05-16T13:29:58;6.72;;;3.20;;
22851;SDS011;11592;45.460;9.240;2023-05-16T13:32:25;6.53;;;3.50;;
22851;SDS011;11592;45.460;9.240;2023-05-16T13:34:52;6.07;;;3.95;;
22851;SDS011;11592;45.460;9.240;2023-05-16T13:37:19;5.25;;;3.30;;
22851;SDS011;11592;45.460;9.240;2023-05-16T13:39:46;6.75;;;3.50;;
22851;SDS011;11592;45.460;9.240;2023-05-16T13:42:13;6.68;;;3.80;;
22851;SDS011;11592;45.460;9.240;2023-05-16T13:44:40;5.65;;;3.67;;
22851;SDS011;11592;45.460;9.240;2023-05-16T13:47:07;7.13;;;3.40;;
22851;SDS011;11592;45.460;9.240;2023-05-16T13:53:21;8.52;;;3.85;;
22851;SDS011;11592;45.460;9.240;2023-05-16T13:55:48;3.92;;;3.22;;
22851;SDS011;11592;45.460;9.240;2023-05-16T13:58:15;7.85;;;3.50;;
22851;SDS011;11592;45.460;9.240;2023-05-16T14:00:42;5.70;;;3.45;;
22851;SDS011;11592;45.460;9.240;2023-05-16T14:03:11;9.82;;;3.65;;
22851;SDS011;11592;45.460;9.240;2023-05-16T14:05:38;6.03;;;3.47;;
22851;SDS011;11592;45.460;9.240;2023-05-16T14:08:05;7.85;;;3.80;;
22851;SDS011;11592;45.460;9.240;2023-05-16T14:10:32;5.20;;;3.83;;
22851;SDS011;11592;45.460;9.240;2023-05-16T14:12:59;9.75;;;4.75;;
22851;SDS011;11592;45.460;9.240;2023-05-16T14:15:26;10.20;;;4.15;;
22851;SDS011;11592;45.460;9.240;2023-05-16T14:17:53;6.28;;;4.00;;
22851;SDS011;11592;45.460;9.240;2023-05-16T14:20:20;5.95;;;3.50;;
22851;SDS011;11592;45.460;9.240;2023-05-16T14:22:48;8.43;;;4.50;;
22851;SDS011;11592;45.460;9.240;2023-05-16T14:25:14;6.47;;;4.10;;
22851;SDS011;11592;45.460;9.240;2023-05-16T14:27:41;6.63;;;4.38;;
22851;SDS011;11592;45.460;9.240;2023-05-16T14:30:08;6.18;;;4.65;;
22851;SDS011;11592;45.460;9.240;2023-05-16T14:32:35;6.30;;;3.97;;
22851;SDS011;11592;45.460;9.240;2023-05-16T14:35:02;5.88;;;4.38;;
22851;SDS011;11592;45.460;9.240;2023-05-16T14:37:30;6.75;;;4.07;;
22851;SDS011;11592;45.460;9.240;2023-05-16T14:39:57;6.22;;;3.83;;
22851;SDS011;11592;45.460;9.240;2023-05-16T14:42:25;5.30;;;4.20;;
22851;SDS011;11592;45.460;9.240;2023-05-16T14:44:52;5.88;;;3.90;;
22851;SDS011;11592;45.460;9.240;2023-05-16T14:47:19;5.80;;;4.20;;
22851;SDS011;11592;45.460;9.240;2023-05-16T14:49:46;5.53;;;3.47;;
22851;SDS011;11592;45.460;9.240;2023-05-16T14:52:13;3.75;;;2.80;;
22851;SDS011;11592;45.460;9.240;2023-05-16T14:54:40;5.38;;;2.53;;
22851;SDS011;11592;45.460;9.240;2023-05-16T14:57:07;7.15;;;2.10;;
22851;SDS011;11592;45.460;9.240;2023-05-16T14:59:33;4.10;;;2.30;;
22851;SDS011;11592;45.460;9.240;2023-05-16T15:02:00;6.90;;;2.20;;
22851;SDS011;11592;45.460;9.240;2023-05-16T15:04:27;1.98;;;1.60;;
22851;SDS011;11592;45.460;9.240;2023-05-16T15:06:55;2.33;;;1.60;;
22851;SDS011;11592;45.460;9.240;2023-05-16T15:09:21;4.03;;;2.47;;
22851;SDS011;11592;45.460;9.240;2023-05-16T15:11:48;2.42;;;1.75;;
22851;SDS011;11592;45.460;9.240;2023-05-16T15:14:15;5.85;;;2.80;;
22851;SDS011;11592;45.460;9.240;2023-05-16T15:16:42;3.85;;;2.88;;
22851;SDS011;11592;45.460;9.240;2023-05-16T15:19:09;7.57;;;2.80;;
22851;SDS011;11592;45.460;9.240;2023-05-16T15:21:36;3.28;;;2.70;;
22851;SDS011;11592;45.460;9.240;2023-05-16T15:24:03;4.60;;;2.53;;
22851;SDS011;11592;45.460;9.240;2023-05-16T15:26:30;4.90;;;3.00;;
22851;SDS011;11592;45.460;9.240;2023-05-16T15:28:57;4.70;;;3.20;;